sensor_id;sensor_type;location;lat;lon;timestamp;P1;durP1;ratioP1;P2;durP2;ratioP2
74170;SDS011;62526;50.948;6.590;2023-12-20T00:01:33;5.77;;;4.57;;
74170;SDS011;62526;50.948;6.590;2023-12-20T00:04:02;8.70;;;6.83;;
74170;SDS011;62526;50.948;6.590;2023-12-20T00:06:30;8.17;;;6.20;;
74170;SDS011;62526;50.948;6.590;2023-12-20T00:08:58;10.90;;;7.23;;
74170;SDS011;62526;50.948;6.590;2023-12-20T00:11:25;10.37;;;6.53;;
74170;SDS011;62526;50.948;6.590;2023-12-20T00:13:52;10.47;;;7.60;;
74170;SDS011;62526;50.948;6.590;2023-12-20T00:16:19;9.30;;;6.33;;
74170;SDS011;62526;50.948;6.590;2023-12-20T00:18:46;11.43;;;7.83;;
74170;SDS011;62526;50.948;6.590;2023-12-20T00:21:13;14.17;;;7.37;;
74170;SDS011;62526;50.948;6.590;2023-12-20T00:23:40;14.33;;;8.53;;
74170;SDS011;62526;50.948;6.590;2023-12-20T00:26:08;12.17;;;8.13;;
74170;SDS011;62526;50.948;6.590;2023-12-20T00:28:35;17.47;;;9.87;;
74170;SDS011;62526;50.948;6.590;2023-12-20T00:31:02;12.17;;;9.07;;
74170;SDS011;62526;50.948;6.590;2023-12-20T00:33:28;13.33;;;9.23;;
74170;SDS011;62526;50.948;6.590;2023-12-20T00:35:55;12.07;;;8.20;;
74170;SDS011;62526;50.948;6.590;2023-12-20T00:38:22;13.63;;;9.40;;
74170;SDS011;62526;50.948;6.590;2023-12-20T00:40:49;15.00;;;8.10;;
74170;SDS011;62526;50.948;6.590;2023-12-20T00:43:16;11.20;;;6.73;;
74170;SDS011;62526;50.948;6.590;2023-12-20T00:45:43;11.30;;;7.00;;
74170;SDS011;62526;50.948;6.590;2023-12-20T00:48:10;7.23;;;4.50;;
74170;SDS011;62526;50.948;6.590;2023-12-20T00:50:37;9.47;;;4.97;;
74170;SDS011;62526;50.948;6.590;2023-12-20T00:53:03;11.23;;;7.33;;
74170;SDS011;62526;50.948;6.590;2023-12-20T00:55:30;10.83;;;5.90;;
74170;SDS011;62526;50.948;6.590;2023-12-20T00:57:57;11.17;;;7.47;;
74170;SDS011;62526;50.948;6.590;2023-12-20T01:00:24;12.43;;;7.83;;
74170;SDS011;62526;50.948;6.590;2023-12-20T01:02:51;13.20;;;8.20;;
74170;SDS011;62526;50.948;6.590;2023-12-20T01:05:19;19.87;;;10.13;;
74170;SDS011;62526;50.948;6.590;2023-12-20T01:07:46;17.63;;;9.40;;
74170;SDS011;62526;50.948;6.590;2023-12-20T01:10:13;17.93;;;10.07;;
74170;SDS011;62526;50.948;6.590;2023-12-20T01:12:39;16.43;;;9.63;;
74170;SDS011;62526;50.948;6.590;2023-12-20T01:15:06;17.97;;;8.57;;
74170;SDS011;62526;50.948;6.590;2023-12-20T01:17:33;10.53;;;6.53;;
74170;SDS011;62526;50.948;6.590;2023-12-20T01:19:59;11.47;;;5.90;;
74170;SDS011;62526;50.948;6.590;2023-12-20T01:22:26;16.87;;;7.63;;
74170;SDS011;62526;50.948;6.590;2023-12-20T01:24:53;15.13;;;7.37;;
74170;SDS011;62526;50.948;6.590;2023-12-20T01:27:19;13.33;;;6.50;;
74170;SDS011;62526;50.948;6.590;2023-12-20T01:29:46;9.63;;;5.37;;
74170;SDS011;62526;50.948;6.590;2023-12-20T01:32:13;10.67;;;4.90;;
74170;SDS011;62526;50.948;6.590;2023-12-20T01:34:40;6.37;;;4.07;;
74170;SDS011;62526;50.948;6.590;2023-12-20T01:37:06;5.23;;;3.93;;
74170;SDS011;62526;50.948;6.590;2023-12-20T01:39:34;7.77;;;3.77;;
74170;SDS011;62526;50.948;6.590;2023-12-20T01:42:00;8.77;;;3.77;;
74170;SDS011;62526;50.948;6.590;2023-12-20T01:44:27;6.03;;;4.07;;
74170;SDS011;62526;50.948;6.590;2023-12-20T01:46:54;13.50;;;5.07;;
74170;SDS011;62526;50.948;6.590;2023-12-20T01:49:21;8.60;;;4.77;;
74170;SDS011;62526;50.948;6.590;2023-12-20T01:51:50;9.20;;;4.23;;
74170;SDS011;62526;50.948;6.590;2023-12-20T01:54:35;13.07;;;3.83;;
74170;SDS011;62526;50.948;6.590;2023-12-20T01:57:19;20.93;;;5.83;;
74170;SDS011;62526;50.948;6.590;2023-12-20T01:59:46;6.97;;;2.43;;
74170;SDS011;62526;50.948;6.590;2023-12-20T02:02:12;7.87;;;3.00;;
74170;SDS011;62526;50.948;6.590;2023-12-20T02:04:40;11.47;;;3.03;;
74170;SDS011;62526;50.948;6.590;2023-12-20T02:07:06;8.50;;;2.90;;
74170;SDS011;62526;50.948;6.590;2023-12-20T02:09:33;5.70;;;2.07;;
74170;SDS011;62526;50.948;6.590;2023-12-20T02:12:00;7.20;;;2.87;;
74170;SDS011;62526;50.948;6.590;2023-12-20T02:14:27;17.93;;;3.00;;
74170;SDS011;62526;50.948;6.590;2023-12-20T02:16:54;12.30;;;3.87;;
74170;SDS011;62526;50.948;6.590;2023-12-20T02:19:21;6.53;;;3.20;;
74170;SDS011;62526;50.948;6.590;2023-12-20T02:21:48;8.97;;;2.73;;
74170;SDS011;62526;50.948;6.590;2023-12-20T02:24:15;6.67;;;2.33;;
74170;SDS011;62526;50.948;6.590;2023-12-20T02:26:41;10.30;;;2.63;;
74170;SDS011;62526;50.948;6.590;2023-12-20T02:29:08;5.50;;;2.43;;
74170;SDS011;62526;50.948;6.590;2023-12-20T02:31:35;5.67;;;2.50;;
74170;SDS011;62526;50.948;6.590;2023-12-20T02:34:02;11.00;;;2.27;;
74170;SDS011;62526;50.948;6.590;2023-12-20T02:36:28;8.03;;;3.03;;
74170;SDS011;62526;50.948;6.590;2023-12-20T02:38:55;11.67;;;3.83;;
74170;SDS011;62526;50.948;6.590;2023-12-20T02:41:22;4.70;;;1.80;;
74170;SDS011;62526;50.948;6.590;2023-12-20T02:43:48;9.10;;;2.07;;
74170;SDS011;62526;50.948;6.590;2023-12-20T02:46:16;7.67;;;2.20;;
74170;SDS011;62526;50.948;6.590;2023-12-20T02:48:42;8.30;;;1.83;;
74170;SDS011;62526;50.948;6.590;2023-12-20T02:51:09;4.07;;;2.30;;
74170;SDS011;62526;50.948;6.590;2023-12-20T02:53:36;9.80;;;2.63;;
74170;SDS011;62526;50.948;6.590;2023-12-20T02:56:03;10.33;;;2.40;;
74170;SDS011;62526;50.948;6.590;2023-12-20T02:58:31;14.17;;;2.57;;
74170;SDS011;62526;50.948;6.590;2023-12-20T03:01:00;12.23;;;2.90;;
74170;SDS011;62526;50.948;6.590;2023-12-20T03:03:27;22.20;;;3.07;;
74170;SDS011;62526;50.948;6.590;2023-12-20T03:05:55;12.23;;;2.80;;
74170;SDS011;62526;50.948;6.590;2023-12-20T03:08:23;15.67;;;3.57;;
74170;SDS011;62526;50.948;6.590;2023-12-20T03:10:51;8.20;;;2.37;;
74170;SDS011;62526;50.948;6.590;2023-12-20T03:13:18;8.50;;;2.63;;
74170;SDS011;62526;50.948;6.590;2023-12-20T03:15:47;11.40;;;2.67;;
74170;SDS011;62526;50.948;6.590;2023-12-20T03:18:14;16.07;;;3.03;;
74170;SDS011;62526;50.948;6.590;2023-12-20T03:20:41;7.80;;;2.83;;
74170;SDS011;62526;50.948;6.590;2023-12-20T03:23:08;6.87;;;2.77;;
74170;SDS011;62526;50.948;6.590;2023-12-20T03:25:35;8.90;;;2.90;;
74170;SDS011;62526;50.948;6.590;2023-12-20T03:28:02;9.70;;;2.83;;
74170;SDS011;62526;50.948;6.590;2023-12-20T03:30:30;5.00;;;1.93;;
74170;SDS011;62526;50.948;6.590;2023-12-20T03:32:57;8.77;;;3.27;;
74170;SDS011;62526;50.948;6.590;2023-12-20T03:35:24;6.70;;;2.40;;
74170;SDS011;62526;50.948;6.590;2023-12-20T03:37:51;14.93;;;3.57;;
74170;SDS011;62526;50.948;6.590;2023-12-20T03:40:17;13.37;;;3.03;;
74170;SDS011;62526;50.948;6.590;2023-12-20T03:42:44;7.97;;;2.47;;
74170;SDS011;62526;50.948;6.590;2023-12-20T03:45:11;14.30;;;3.90;;
74170;SDS011;62526;50.948;6.590;2023-12-20T03:47:40;8.53;;;3.67;;
74170;SDS011;62526;50.948;6.590;2023-12-20T03:50:07;18.37;;;4.00;;
74170;SDS011;62526;50.948;6.590;2023-12-20T03:52:34;9.50;;;3.27;;
74170;SDS011;62526;50.948;6.590;2023-12-20T03:55:01;10.73;;;3.63;;
74170;SDS011;62526;50.948;6.590;2023-12-20T03:57:28;11.03;;;3.40;;
74170;SDS011;62526;50.948;6.590;2023-12-20T03:59:55;21.17;;;4.33;;
74170;SDS011;62526;50.948;6.590;2023-12-20T04:02:22;15.23;;;4.43;;
74170;SDS011;62526;50.948;6.590;2023-12-20T04:04:50;11.37;;;3.43;;
74170;SDS011;62526;50.948;6.590;2023-12-20T04:07:17;15.07;;;3.87;;
74170;SDS011;62526;50.948;6.590;2023-12-20T04:09:44;10.73;;;4.10;;
74170;SDS011;62526;50.948;6.590;2023-12-20T04:12:11;8.27;;;3.40;;
74170;SDS011;62526;50.948;6.590;2023-12-20T04:14:38;14.27;;;3.77;;
74170;SDS011;62526;50.948;6.590;2023-12-20T04:17:05;10.97;;;3.47;;
74170;SDS011;62526;50.948;6.590;2023-12-20T04:19:31;19.07;;;3.97;;
74170;SDS011;62526;50.948;6.590;2023-12-20T04:21:59;16.30;;;3.87;;
74170;SDS011;62526;50.948;6.590;2023-12-20T04:24:25;12.40;;;3.63;;
74170;SDS011;62526;50.948;6.590;2023-12-20T04:26:52;11.53;;;4.03;;
74170;SDS011;62526;50.948;6.590;2023-12-20T04:29:19;15.17;;;3.50;;
74170;SDS011;62526;50.948;6.590;2023-12-20T04:31:46;11.90;;;3.17;;
74170;SDS011;62526;50.948;6.590;2023-12-20T04:34:13;7.10;;;3.10;;
74170;SDS011;62526;50.948;6.590;2023-12-20T04:36:41;7.40;;;2.93;;
74170;SDS011;62526;50.948;6.590;2023-12-20T04:39:08;7.33;;;2.30;;
74170;SDS011;62526;50.948;6.590;2023-12-20T04:41:36;13.20;;;2.57;;
74170;SDS011;62526;50.948;6.590;2023-12-20T04:44:03;7.50;;;2.67;;
74170;SDS011;62526;50.948;6.590;2023-12-20T04:46:31;11.70;;;4.23;;
74170;SDS011;62526;50.948;6.590;2023-12-20T04:48:57;12.00;;;3.20;;
74170;SDS011;62526;50.948;6.590;2023-12-20T04:51:25;5.83;;;3.70;;
74170;SDS011;62526;50.948;6.590;2023-12-20T04:53:51;12.77;;;3.77;;
74170;SDS011;62526;50.948;6.590;2023-12-20T04:56:19;4.07;;;2.03;;
74170;SDS011;62526;50.948;6.590;2023-12-20T04:58:49;6.10;;;2.90;;
74170;SDS011;62526;50.948;6.590;2023-12-20T05:01:16;9.43;;;3.70;;
74170;SDS011;62526;50.948;6.590;2023-12-20T05:03:43;10.87;;;3.93;;
74170;SDS011;62526;50.948;6.590;2023-12-20T05:06:09;5.60;;;2.97;;
74170;SDS011;62526;50.948;6.590;2023-12-20T05:08:37;12.40;;;3.50;;
74170;SDS011;62526;50.948;6.590;2023-12-20T05:11:05;13.23;;;4.13;;
74170;SDS011;62526;50.948;6.590;2023-12-20T05:13:31;14.50;;;3.73;;
74170;SDS011;62526;50.948;6.590;2023-12-20T05:15:58;14.50;;;3.87;;
74170;SDS011;62526;50.948;6.590;2023-12-20T05:18:25;15.20;;;3.47;;
74170;SDS011;62526;50.948;6.590;2023-12-20T05:20:52;5.87;;;2.90;;
74170;SDS011;62526;50.948;6.590;2023-12-20T05:23:20;7.80;;;3.07;;
74170;SDS011;62526;50.948;6.590;2023-12-20T05:25:46;24.17;;;4.03;;
74170;SDS011;62526;50.948;6.590;2023-12-20T05:28:13;17.23;;;3.10;;
74170;SDS011;62526;50.948;6.590;2023-12-20T05:30:40;21.13;;;4.03;;
74170;SDS011;62526;50.948;6.590;2023-12-20T05:33:07;9.10;;;2.37;;
74170;SDS011;62526;50.948;6.590;2023-12-20T05:35:34;12.87;;;2.87;;
74170;SDS011;62526;50.948;6.590;2023-12-20T05:38:02;15.43;;;3.97;;
74170;SDS011;62526;50.948;6.590;2023-12-20T05:40:29;18.37;;;4.23;;
74170;SDS011;62526;50.948;6.590;2023-12-20T05:42:56;16.70;;;3.83;;
74170;SDS011;62526;50.948;6.590;2023-12-20T05:45:23;17.73;;;3.87;;
74170;SDS011;62526;50.948;6.590;2023-12-20T05:47:49;9.33;;;2.73;;
74170;SDS011;62526;50.948;6.590;2023-12-20T05:50:16;6.93;;;2.70;;
74170;SDS011;62526;50.948;6.590;2023-12-20T05:52:43;7.57;;;2.80;;
74170;SDS011;62526;50.948;6.590;2023-12-20T05:55:10;8.50;;;2.67;;
74170;SDS011;62526;50.948;6.590;2023-12-20T05:57:37;13.07;;;3.50;;
74170;SDS011;62526;50.948;6.590;2023-12-20T06:00:04;17.33;;;3.70;;
74170;SDS011;62526;50.948;6.590;2023-12-20T06:02:32;11.93;;;3.47;;
74170;SDS011;62526;50.948;6.590;2023-12-20T06:04:59;8.43;;;3.13;;
74170;SDS011;62526;50.948;6.590;2023-12-20T06:07:26;12.43;;;4.03;;
74170;SDS011;62526;50.948;6.590;2023-12-20T06:09:53;13.43;;;2.93;;
74170;SDS011;62526;50.948;6.590;2023-12-20T06:12:20;5.53;;;2.93;;
74170;SDS011;62526;50.948;6.590;2023-12-20T06:14:47;16.67;;;3.60;;
74170;SDS011;62526;50.948;6.590;2023-12-20T06:17:14;8.43;;;2.83;;
74170;SDS011;62526;50.948;6.590;2023-12-20T06:19:41;6.77;;;2.33;;
74170;SDS011;62526;50.948;6.590;2023-12-20T06:22:07;11.57;;;3.27;;
74170;SDS011;62526;50.948;6.590;2023-12-20T06:24:34;15.13;;;3.77;;
74170;SDS011;62526;50.948;6.590;2023-12-20T06:27:01;10.53;;;3.03;;
74170;SDS011;62526;50.948;6.590;2023-12-20T06:29:28;6.47;;;2.10;;
74170;SDS011;62526;50.948;6.590;2023-12-20T06:31:56;2.40;;;1.40;;
74170;SDS011;62526;50.948;6.590;2023-12-20T06:34:24;11.53;;;2.20;;
74170;SDS011;62526;50.948;6.590;2023-12-20T06:36:51;14.60;;;3.73;;
74170;SDS011;62526;50.948;6.590;2023-12-20T06:39:18;10.77;;;2.37;;
74170;SDS011;62526;50.948;6.590;2023-12-20T06:41:45;12.40;;;2.47;;
74170;SDS011;62526;50.948;6.590;2023-12-20T06:44:12;11.23;;;2.80;;
74170;SDS011;62526;50.948;6.590;2023-12-20T06:46:39;5.93;;;2.33;;
74170;SDS011;62526;50.948;6.590;2023-12-20T06:49:07;12.83;;;3.30;;
74170;SDS011;62526;50.948;6.590;2023-12-20T06:51:34;11.17;;;3.00;;
74170;SDS011;62526;50.948;6.590;2023-12-20T06:54:01;8.47;;;2.53;;
74170;SDS011;62526;50.948;6.590;2023-12-20T06:56:30;12.80;;;3.97;;
74170;SDS011;62526;50.948;6.590;2023-12-20T06:58:58;6.27;;;2.23;;
74170;SDS011;62526;50.948;6.590;2023-12-20T07:01:25;8.70;;;3.20;;
74170;SDS011;62526;50.948;6.590;2023-12-20T07:03:52;12.43;;;2.50;;
74170;SDS011;62526;50.948;6.590;2023-12-20T07:06:19;18.63;;;4.00;;
74170;SDS011;62526;50.948;6.590;2023-12-20T07:08:46;7.53;;;2.90;;
74170;SDS011;62526;50.948;6.590;2023-12-20T07:11:13;11.43;;;2.83;;
74170;SDS011;62526;50.948;6.590;2023-12-20T07:13:40;9.63;;;4.10;;
74170;SDS011;62526;50.948;6.590;2023-12-20T07:16:07;14.43;;;3.10;;
74170;SDS011;62526;50.948;6.590;2023-12-20T07:18:34;7.23;;;3.50;;
74170;SDS011;62526;50.948;6.590;2023-12-20T07:21:00;10.80;;;3.50;;
74170;SDS011;62526;50.948;6.590;2023-12-20T07:23:28;8.27;;;3.07;;
74170;SDS011;62526;50.948;6.590;2023-12-20T07:25:55;13.10;;;3.33;;
74170;SDS011;62526;50.948;6.590;2023-12-20T07:28:22;16.60;;;4.63;;
74170;SDS011;62526;50.948;6.590;2023-12-20T07:30:48;14.60;;;3.50;;
74170;SDS011;62526;50.948;6.590;2023-12-20T07:33:15;12.93;;;3.37;;
74170;SDS011;62526;50.948;6.590;2023-12-20T07:35:42;16.07;;;4.27;;
74170;SDS011;62526;50.948;6.590;2023-12-20T07:38:09;12.53;;;3.30;;
74170;SDS011;62526;50.948;6.590;2023-12-20T07:40:36;12.27;;;4.00;;
74170;SDS011;62526;50.948;6.590;2023-12-20T07:43:04;8.53;;;3.37;;
74170;SDS011;62526;50.948;6.590;2023-12-20T07:45:30;13.87;;;3.57;;
74170;SDS011;62526;50.948;6.590;2023-12-20T07:47:58;12.40;;;3.47;;
74170;SDS011;62526;50.948;6.590;2023-12-20T07:50:25;8.63;;;3.63;;
74170;SDS011;62526;50.948;6.590;2023-12-20T07:52:53;15.53;;;3.60;;
74170;SDS011;62526;50.948;6.590;2023-12-20T07:55:20;15.47;;;4.60;;
74170;SDS011;62526;50.948;6.590;2023-12-20T07:57:46;16.60;;;5.17;;
74170;SDS011;62526;50.948;6.590;2023-12-20T08:00:13;14.13;;;4.40;;
74170;SDS011;62526;50.948;6.590;2023-12-20T08:02:40;10.97;;;3.23;;
74170;SDS011;62526;50.948;6.590;2023-12-20T08:05:07;13.43;;;3.27;;
74170;SDS011;62526;50.948;6.590;2023-12-20T08:07:35;17.67;;;3.37;;
74170;SDS011;62526;50.948;6.590;2023-12-20T08:10:02;5.97;;;2.90;;
74170;SDS011;62526;50.948;6.590;2023-12-20T08:12:29;11.47;;;3.33;;
74170;SDS011;62526;50.948;6.590;2023-12-20T08:14:56;7.87;;;2.97;;
74170;SDS011;62526;50.948;6.590;2023-12-20T08:17:23;9.93;;;3.37;;
74170;SDS011;62526;50.948;6.590;2023-12-20T08:19:49;13.00;;;3.70;;
74170;SDS011;62526;50.948;6.590;2023-12-20T08:22:17;12.37;;;3.10;;
74170;SDS011;62526;50.948;6.590;2023-12-20T08:24:43;8.20;;;3.33;;
74170;SDS011;62526;50.948;6.590;2023-12-20T08:27:11;10.53;;;3.43;;
74170;SDS011;62526;50.948;6.590;2023-12-20T08:29:38;12.23;;;3.27;;
74170;SDS011;62526;50.948;6.590;2023-12-20T08:32:04;12.43;;;3.40;;
74170;SDS011;62526;50.948;6.590;2023-12-20T08:34:31;15.67;;;3.63;;
74170;SDS011;62526;50.948;6.590;2023-12-20T08:36:59;12.33;;;4.00;;
74170;SDS011;62526;50.948;6.590;2023-12-20T08:39:26;6.53;;;2.63;;
74170;SDS011;62526;50.948;6.590;2023-12-20T08:41:53;15.93;;;4.23;;
74170;SDS011;62526;50.948;6.590;2023-12-20T08:44:20;13.83;;;3.87;;
74170;SDS011;62526;50.948;6.590;2023-12-20T08:46:47;9.87;;;2.83;;
74170;SDS011;62526;50.948;6.590;2023-12-20T08:49:13;9.27;;;3.43;;
74170;SDS011;62526;50.948;6.590;2023-12-20T08:51:41;8.80;;;2.63;;
74170;SDS011;62526;50.948;6.590;2023-12-20T08:54:12;8.70;;;3.13;;
74170;SDS011;62526;50.948;6.590;2023-12-20T08:56:40;19.50;;;4.13;;
74170;SDS011;62526;50.948;6.590;2023-12-20T08:59:06;10.50;;;2.80;;
74170;SDS011;62526;50.948;6.590;2023-12-20T09:01:34;8.43;;;2.33;;
74170;SDS011;62526;50.948;6.590;2023-12-20T09:04:01;11.37;;;2.70;;
74170;SDS011;62526;50.948;6.590;2023-12-20T09:06:27;10.70;;;3.23;;
74170;SDS011;62526;50.948;6.590;2023-12-20T09:08:54;9.67;;;3.73;;
74170;SDS011;62526;50.948;6.590;2023-12-20T09:11:22;11.33;;;3.67;;
74170;SDS011;62526;50.948;6.590;2023-12-20T09:13:51;6.23;;;3.07;;
74170;SDS011;62526;50.948;6.590;2023-12-20T09:16:18;9.70;;;3.37;;
74170;SDS011;62526;50.948;6.590;2023-12-20T09:18:44;11.13;;;2.70;;
74170;SDS011;62526;50.948;6.590;2023-12-20T09:21:11;9.87;;;3.03;;
74170;SDS011;62526;50.948;6.590;2023-12-20T09:23:38;10.67;;;2.70;;
74170;SDS011;62526;50.948;6.590;2023-12-20T09:26:04;10.87;;;2.40;;
74170;SDS011;62526;50.948;6.590;2023-12-20T09:28:31;10.50;;;3.10;;
74170;SDS011;62526;50.948;6.590;2023-12-20T09:30:58;8.70;;;2.23;;
74170;SDS011;62526;50.948;6.590;2023-12-20T09:33:25;11.53;;;3.10;;
74170;SDS011;62526;50.948;6.590;2023-12-20T09:35:52;12.73;;;3.37;;
74170;SDS011;62526;50.948;6.590;2023-12-20T09:38:18;20.17;;;3.07;;
74170;SDS011;62526;50.948;6.590;2023-12-20T09:40:45;14.73;;;4.23;;
74170;SDS011;62526;50.948;6.590;2023-12-20T09:43:13;14.17;;;3.03;;
74170;SDS011;62526;50.948;6.590;2023-12-20T09:45:38;6.03;;;2.27;;
74170;SDS011;62526;50.948;6.590;2023-12-20T09:48:06;19.23;;;2.47;;
74170;SDS011;62526;50.948;6.590;2023-12-20T09:50:33;7.23;;;3.00;;
74170;SDS011;62526;50.948;6.590;2023-12-20T09:53:01;9.27;;;2.83;;
74170;SDS011;62526;50.948;6.590;2023-12-20T09:55:31;11.17;;;2.47;;
74170;SDS011;62526;50.948;6.590;2023-12-20T09:57:57;8.67;;;2.70;;
74170;SDS011;62526;50.948;6.590;2023-12-20T10:00:24;7.67;;;2.80;;
74170;SDS011;62526;50.948;6.590;2023-12-20T10:02:59;13.70;;;3.30;;
74170;SDS011;62526;50.948;6.590;2023-12-20T10:05:27;7.03;;;2.50;;
74170;SDS011;62526;50.948;6.590;2023-12-20T10:07:55;15.37;;;3.10;;
74170;SDS011;62526;50.948;6.590;2023-12-20T10:10:22;14.10;;;3.50;;
74170;SDS011;62526;50.948;6.590;2023-12-20T10:15:27;8.60;;;2.87;;
74170;SDS011;62526;50.948;6.590;2023-12-20T10:17:53;8.43;;;2.80;;
74170;SDS011;62526;50.948;6.590;2023-12-20T10:20:20;12.00;;;3.30;;
74170;SDS011;62526;50.948;6.590;2023-12-20T10:22:47;8.13;;;3.17;;
74170;SDS011;62526;50.948;6.590;2023-12-20T10:25:15;9.93;;;3.00;;
74170;SDS011;62526;50.948;6.590;2023-12-20T10:27:41;15.70;;;3.80;;
74170;SDS011;62526;50.948;6.590;2023-12-20T10:30:08;12.37;;;3.23;;
74170;SDS011;62526;50.948;6.590;2023-12-20T10:32:36;8.17;;;3.03;;
74170;SDS011;62526;50.948;6.590;2023-12-20T10:35:03;8.80;;;2.67;;
74170;SDS011;62526;50.948;6.590;2023-12-20T10:37:30;11.50;;;2.90;;
74170;SDS011;62526;50.948;6.590;2023-12-20T10:39:57;16.00;;;3.67;;
74170;SDS011;62526;50.948;6.590;2023-12-20T10:42:26;12.13;;;2.93;;
74170;SDS011;62526;50.948;6.590;2023-12-20T10:44:51;8.27;;;2.67;;
74170;SDS011;62526;50.948;6.590;2023-12-20T10:47:19;11.83;;;2.77;;
74170;SDS011;62526;50.948;6.590;2023-12-20T10:49:45;19.63;;;3.10;;
74170;SDS011;62526;50.948;6.590;2023-12-20T10:52:13;7.33;;;3.20;;
74170;SDS011;62526;50.948;6.590;2023-12-20T10:54:40;8.87;;;3.23;;
74170;SDS011;62526;50.948;6.590;2023-12-20T10:57:07;9.03;;;2.77;;
74170;SDS011;62526;50.948;6.590;2023-12-20T10:59:35;15.33;;;2.63;;
74170;SDS011;62526;50.948;6.590;2023-12-20T11:02:01;6.80;;;2.50;;
74170;SDS011;62526;50.948;6.590;2023-12-20T11:04:28;8.40;;;2.40;;
74170;SDS011;62526;50.948;6.590;2023-12-20T11:06:57;16.97;;;3.00;;
74170;SDS011;62526;50.948;6.590;2023-12-20T11:09:31;7.77;;;3.17;;
74170;SDS011;62526;50.948;6.590;2023-12-20T11:12:06;11.57;;;2.77;;
74170;SDS011;62526;50.948;6.590;2023-12-20T11:14:46;10.03;;;3.20;;
74170;SDS011;62526;50.948;6.590;2023-12-20T11:17:12;7.33;;;2.33;;
74170;SDS011;62526;50.948;6.590;2023-12-20T11:20:15;14.03;;;3.43;;
74170;SDS011;62526;50.948;6.590;2023-12-20T11:22:33;4.40;;;2.40;;
74170;SDS011;62526;50.948;6.590;2023-12-20T11:25:06;12.50;;;3.17;;
74170;SDS011;62526;50.948;6.590;2023-12-20T11:27:36;15.73;;;2.50;;
74170;SDS011;62526;50.948;6.590;2023-12-20T11:30:04;12.60;;;3.20;;
74170;SDS011;62526;50.948;6.590;2023-12-20T11:32:33;11.33;;;3.80;;
74170;SDS011;62526;50.948;6.590;2023-12-20T11:34:59;10.40;;;2.40;;
74170;SDS011;62526;50.948;6.590;2023-12-20T11:37:28;14.73;;;2.83;;
74170;SDS011;62526;50.948;6.590;2023-12-20T11:39:55;9.03;;;3.93;;
74170;SDS011;62526;50.948;6.590;2023-12-20T11:42:23;6.67;;;2.60;;
74170;SDS011;62526;50.948;6.590;2023-12-20T11:44:50;8.40;;;3.30;;
74170;SDS011;62526;50.948;6.590;2023-12-20T11:47:17;6.23;;;2.03;;
74170;SDS011;62526;50.948;6.590;2023-12-20T11:49:44;9.07;;;2.73;;
74170;SDS011;62526;50.948;6.590;2023-12-20T11:52:11;8.63;;;2.43;;
74170;SDS011;62526;50.948;6.590;2023-12-20T11:54:37;5.43;;;2.63;;
74170;SDS011;62526;50.948;6.590;2023-12-20T11:57:05;5.07;;;2.80;;
74170;SDS011;62526;50.948;6.590;2023-12-20T11:59:32;8.77;;;2.93;;
74170;SDS011;62526;50.948;6.590;2023-12-20T12:01:59;11.47;;;3.67;;
74170;SDS011;62526;50.948;6.590;2023-12-20T12:04:25;9.00;;;3.07;;
74170;SDS011;62526;50.948;6.590;2023-12-20T12:06:52;5.53;;;2.70;;
74170;SDS011;62526;50.948;6.590;2023-12-20T12:09:19;7.50;;;2.40;;
74170;SDS011;62526;50.948;6.590;2023-12-20T12:11:47;13.13;;;3.63;;
74170;SDS011;62526;50.948;6.590;2023-12-20T12:14:14;9.83;;;3.27;;
74170;SDS011;62526;50.948;6.590;2023-12-20T12:16:41;8.00;;;2.83;;
74170;SDS011;62526;50.948;6.590;2023-12-20T12:19:10;9.40;;;3.10;;
74170;SDS011;62526;50.948;6.590;2023-12-20T12:21:34;6.93;;;2.30;;
74170;SDS011;62526;50.948;6.590;2023-12-20T12:24:08;7.97;;;2.83;;
74170;SDS011;62526;50.948;6.590;2023-12-20T12:26:34;12.40;;;3.40;;
74170;SDS011;62526;50.948;6.590;2023-12-20T12:29:01;10.90;;;3.73;;
74170;SDS011;62526;50.948;6.590;2023-12-20T12:31:28;11.03;;;3.53;;
74170;SDS011;62526;50.948;6.590;2023-12-20T12:33:54;11.83;;;3.93;;
74170;SDS011;62526;50.948;6.590;2023-12-20T12:36:21;12.53;;;3.07;;
74170;SDS011;62526;50.948;6.590;2023-12-20T12:38:48;10.43;;;2.90;;
74170;SDS011;62526;50.948;6.590;2023-12-20T12:41:14;14.37;;;3.57;;
74170;SDS011;62526;50.948;6.590;2023-12-20T12:43:42;8.37;;;3.20;;
74170;SDS011;62526;50.948;6.590;2023-12-20T12:46:09;10.47;;;3.23;;
74170;SDS011;62526;50.948;6.590;2023-12-20T12:48:35;9.03;;;3.27;;
74170;SDS011;62526;50.948;6.590;2023-12-20T12:51:02;13.07;;;4.30;;
74170;SDS011;62526;50.948;6.590;2023-12-20T12:53:34;10.70;;;3.73;;
74170;SDS011;62526;50.948;6.590;2023-12-20T12:56:01;7.90;;;3.00;;
74170;SDS011;62526;50.948;6.590;2023-12-20T12:58:28;9.80;;;3.53;;
74170;SDS011;62526;50.948;6.590;2023-12-20T13:00:56;6.83;;;2.57;;
74170;SDS011;62526;50.948;6.590;2023-12-20T13:03:22;8.73;;;3.07;;
74170;SDS011;62526;50.948;6.590;2023-12-20T13:05:49;20.90;;;3.90;;
74170;SDS011;62526;50.948;6.590;2023-12-20T13:08:16;9.97;;;3.53;;
74170;SDS011;62526;50.948;6.590;2023-12-20T13:10:42;12.00;;;3.27;;
74170;SDS011;62526;50.948;6.590;2023-12-20T13:13:10;14.17;;;3.10;;
74170;SDS011;62526;50.948;6.590;2023-12-20T13:15:36;12.93;;;4.00;;
74170;SDS011;62526;50.948;6.590;2023-12-20T13:18:03;7.03;;;2.90;;
74170;SDS011;62526;50.948;6.590;2023-12-20T13:20:31;8.87;;;3.37;;
74170;SDS011;62526;50.948;6.590;2023-12-20T13:22:58;14.20;;;2.73;;
74170;SDS011;62526;50.948;6.590;2023-12-20T13:25:24;9.03;;;2.60;;
74170;SDS011;62526;50.948;6.590;2023-12-20T13:27:53;6.47;;;2.40;;
74170;SDS011;62526;50.948;6.590;2023-12-20T13:30:19;6.20;;;3.20;;
74170;SDS011;62526;50.948;6.590;2023-12-20T13:32:45;9.70;;;2.93;;
74170;SDS011;62526;50.948;6.590;2023-12-20T13:35:12;6.93;;;2.60;;
74170;SDS011;62526;50.948;6.590;2023-12-20T13:37:39;9.57;;;2.77;;
74170;SDS011;62526;50.948;6.590;2023-12-20T13:40:06;8.07;;;2.90;;
74170;SDS011;62526;50.948;6.590;2023-12-20T13:42:34;11.20;;;3.33;;
74170;SDS011;62526;50.948;6.590;2023-12-20T13:45:01;10.47;;;2.77;;
74170;SDS011;62526;50.948;6.590;2023-12-20T13:47:28;9.53;;;3.17;;
74170;SDS011;62526;50.948;6.590;2023-12-20T13:49:55;7.43;;;2.70;;
74170;SDS011;62526;50.948;6.590;2023-12-20T13:52:22;7.80;;;2.93;;
74170;SDS011;62526;50.948;6.590;2023-12-20T13:54:49;14.07;;;3.27;;
74170;SDS011;62526;50.948;6.590;2023-12-20T13:57:16;11.57;;;3.07;;
74170;SDS011;62526;50.948;6.590;2023-12-20T13:59:43;12.17;;;3.00;;
74170;SDS011;62526;50.948;6.590;2023-12-20T14:02:10;14.13;;;2.80;;
74170;SDS011;62526;50.948;6.590;2023-12-20T14:04:36;8.30;;;3.00;;
74170;SDS011;62526;50.948;6.590;2023-12-20T14:07:03;13.70;;;3.07;;
74170;SDS011;62526;50.948;6.590;2023-12-20T14:09:30;7.87;;;3.17;;
74170;SDS011;62526;50.948;6.590;2023-12-20T14:11:56;6.77;;;2.77;;
74170;SDS011;62526;50.948;6.590;2023-12-20T14:14:23;9.90;;;2.93;;
74170;SDS011;62526;50.948;6.590;2023-12-20T14:16:49;13.70;;;3.83;;
74170;SDS011;62526;50.948;6.590;2023-12-20T14:19:16;7.53;;;3.03;;
74170;SDS011;62526;50.948;6.590;2023-12-20T14:21:43;5.30;;;2.80;;
74170;SDS011;62526;50.948;6.590;2023-12-20T14:24:09;8.43;;;2.73;;
74170;SDS011;62526;50.948;6.590;2023-12-20T14:26:36;7.13;;;3.03;;
74170;SDS011;62526;50.948;6.590;2023-12-20T14:29:03;7.10;;;3.10;;
74170;SDS011;62526;50.948;6.590;2023-12-20T14:31:29;11.37;;;2.60;;
74170;SDS011;62526;50.948;6.590;2023-12-20T14:33:56;9.03;;;3.10;;
74170;SDS011;62526;50.948;6.590;2023-12-20T14:36:23;7.03;;;2.73;;
74170;SDS011;62526;50.948;6.590;2023-12-20T14:38:50;17.43;;;3.70;;
74170;SDS011;62526;50.948;6.590;2023-12-20T14:41:16;8.80;;;3.13;;
74170;SDS011;62526;50.948;6.590;2023-12-20T14:43:44;7.53;;;2.73;;